createdAt,value
2022-10-11T00:01:39.808Z,8.99
2022-10-11T00:04:06.441Z,9.23
2022-10-11T00:06:33.217Z,9.01
2022-10-11T00:08:59.722Z,8.72
2022-10-11T00:11:26.244Z,8.61
2022-10-11T00:13:52.743Z,8.54
2022-10-11T00:16:19.291Z,8.68
2022-10-11T00:18:45.815Z,8.91
2022-10-11T00:21:15.373Z,8.64
2022-10-11T00:23:43.360Z,8.57
2022-10-11T00:26:10.241Z,8.48
2022-10-11T00:28:37.640Z,8.45
2022-10-11T00:31:08.870Z,8.26
2022-10-11T00:33:35.936Z,8.14
2022-10-11T00:36:05.701Z,8.17
2022-10-11T00:38:33.748Z,8.06
2022-10-11T00:41:01.176Z,8.00
2022-10-11T00:43:29.870Z,8.10
2022-10-11T00:45:56.285Z,8.06
2022-10-11T00:48:46.595Z,7.97
2022-10-11T00:52:07.844Z,8.07
2022-10-11T00:54:38.009Z,8.06
2022-10-11T00:57:09.601Z,8.00
2022-10-11T00:59:39.909Z,8.20
2022-10-11T01:02:07.473Z,8.09
2022-10-11T01:04:34.994Z,7.81
2022-10-11T01:07:02.194Z,7.79
2022-10-11T01:09:29.921Z,7.82
2022-10-11T01:11:59.644Z,7.76
2022-10-11T01:14:35.366Z,7.65
2022-10-11T01:17:15.654Z,7.50
2022-10-11T01:19:45.649Z,7.66
2022-10-11T01:22:22.705Z,7.61
2022-10-11T01:24:58.831Z,7.68
2022-10-11T01:27:33.131Z,7.56
2022-10-11T01:30:05.422Z,7.58
2022-10-11T01:32:35.008Z,7.54
2022-10-11T01:35:04.983Z,7.51
2022-10-11T01:37:31.851Z,7.44
2022-10-11T01:40:10.168Z,7.51
2022-10-11T01:42:39.747Z,7.24
2022-10-11T01:45:10.956Z,7.32
2022-10-11T01:47:39.099Z,7.41
2022-10-11T01:50:08.163Z,7.35
2022-10-11T01:52:39.424Z,7.40
2022-10-11T01:55:38.101Z,7.30
2022-10-11T01:58:42.949Z,7.32
2022-10-11T02:01:24.737Z,7.30
2022-10-11T02:04:03.337Z,7.28
2022-10-11T02:06:37.410Z,7.30
2022-10-11T02:09:24.513Z,7.35
2022-10-11T02:11:56.770Z,7.18
2022-10-11T02:14:27.128Z,7.28
2022-10-11T02:16:57.822Z,7.18
2022-10-11T02:19:32.992Z,7.28
2022-10-11T02:22:06.053Z,7.48
2022-10-11T02:24:36.364Z,7.40
2022-10-11T02:27:05.230Z,7.15
2022-10-11T02:29:36.398Z,7.08
2022-10-11T02:32:06.786Z,6.90
2022-10-11T02:34:39.886Z,7.04
2022-10-11T02:37:12.479Z,7.20
2022-10-11T02:39:58.963Z,6.93
2022-10-11T02:42:37.140Z,6.82
2022-10-11T02:45:09.136Z,7.05
2022-10-11T02:47:36.392Z,7.11
2022-10-11T02:50:03.638Z,7.00
2022-10-11T02:52:30.206Z,6.90
2022-10-11T02:54:56.657Z,6.79
2022-10-11T02:57:23.132Z,6.80
2022-10-11T02:59:49.633Z,6.94
2022-10-11T03:02:16.308Z,6.86
2022-10-11T03:04:42.909Z,6.89
2022-10-11T03:07:09.366Z,6.71
2022-10-11T03:09:36.111Z,6.66
2022-10-11T03:12:03.146Z,6.49
2022-10-11T03:14:29.654Z,6.49
2022-10-11T03:17:00.767Z,6.56
2022-10-11T03:19:38.765Z,6.56
2022-10-11T03:22:05.332Z,6.46
2022-10-11T03:24:32.322Z,6.56
2022-10-11T03:26:58.998Z,6.55
2022-10-11T03:29:25.594Z,6.32
2022-10-11T03:31:52.111Z,6.39
2022-10-11T03:34:18.666Z,6.31
2022-10-11T03:36:45.190Z,6.42
2022-10-11T03:39:11.888Z,6.44
2022-10-11T03:41:38.367Z,6.29
2022-10-11T03:44:04.867Z,6.21
2022-10-11T03:46:34.544Z,6.05
2022-10-11T03:49:02.456Z,6.20
2022-10-11T03:51:28.942Z,6.26
2022-10-11T03:53:55.557Z,6.13
2022-10-11T03:56:22.070Z,6.17
2022-10-11T03:58:48.639Z,6.20
2022-10-11T04:01:15.539Z,6.44
2022-10-11T04:03:42.220Z,6.68
2022-10-11T04:06:09.015Z,6.65
2022-10-11T04:08:35.699Z,6.69
2022-10-11T04:11:02.492Z,6.72
2022-10-11T04:13:29.008Z,6.77
2022-10-11T04:15:55.766Z,7.10
2022-10-11T04:18:22.204Z,7.14
2022-10-11T04:20:48.740Z,7.18
2022-10-11T04:23:15.372Z,7.28
2022-10-11T04:25:42.336Z,7.24
2022-10-11T04:28:09.349Z,7.25
2022-10-11T04:30:36.187Z,7.36
2022-10-11T04:33:03.265Z,7.52
2022-10-11T04:35:29.786Z,7.50
2022-10-11T04:37:56.636Z,7.58
2022-10-11T04:40:23.317Z,7.65
2022-10-11T04:42:51.952Z,7.72
2022-10-11T04:45:21.118Z,7.72
2022-10-11T04:47:48.839Z,7.83
2022-10-11T04:50:16.364Z,7.85
2022-10-11T04:52:43.380Z,7.83
2022-10-11T04:55:10.863Z,7.72
2022-10-11T04:57:37.575Z,7.73
2022-10-11T05:00:05.476Z,7.65
2022-10-11T05:02:33.419Z,7.68
2022-10-11T05:04:59.983Z,7.62
2022-10-11T05:07:26.836Z,7.68
2022-10-11T05:09:53.325Z,7.55
2022-10-11T05:12:20.008Z,7.54
2022-10-11T05:14:46.614Z,7.50
2022-10-11T05:17:13.095Z,7.47
2022-10-11T05:19:39.670Z,7.35
2022-10-11T05:22:06.144Z,7.42
2022-10-11T05:24:33.197Z,7.34
2022-10-11T05:27:03.172Z,7.45
2022-10-11T05:29:30.060Z,7.44
2022-10-11T05:31:56.548Z,7.50
2022-10-11T05:34:23.048Z,7.35
2022-10-11T05:36:49.525Z,7.45
2022-10-11T05:39:16.480Z,7.40
2022-10-11T05:41:42.973Z,7.68
2022-10-11T05:44:09.407Z,7.65
2022-10-11T05:46:35.921Z,7.64
2022-10-11T05:49:02.995Z,7.72
2022-10-11T05:51:29.621Z,7.72
2022-10-11T05:53:56.254Z,7.62
2022-10-11T05:56:25.142Z,7.52
2022-10-11T05:58:52.601Z,7.52
2022-10-11T06:01:24.868Z,7.61
2022-10-11T06:03:52.000Z,7.61
2022-10-11T06:06:18.882Z,7.56
2022-10-11T06:08:45.790Z,7.59
2022-10-11T06:11:26.371Z,7.58
2022-10-11T06:13:58.137Z,7.52
2022-10-11T06:16:25.143Z,7.54
2022-10-11T06:18:56.362Z,7.61
2022-10-11T06:21:23.874Z,7.59
2022-10-11T06:23:52.936Z,7.51
2022-10-11T06:26:21.283Z,7.52
2022-10-11T06:28:48.209Z,7.48
2022-10-11T06:32:50.176Z,7.64
2022-10-11T06:35:16.880Z,7.61
2022-10-11T06:37:43.578Z,7.73
2022-10-11T06:40:10.895Z,7.66
2022-10-11T06:42:37.492Z,7.86
2022-10-11T06:45:04.393Z,7.79
2022-10-11T06:47:30.922Z,7.92
2022-10-11T06:49:57.440Z,7.81
2022-10-11T06:52:24.182Z,7.72
2022-10-11T06:54:50.706Z,7.66
2022-10-11T06:57:17.354Z,7.89
2022-10-11T06:59:43.878Z,7.78
2022-10-11T07:02:10.802Z,7.85
2022-10-11T07:04:37.383Z,7.93
2022-10-11T07:07:04.104Z,7.93
2022-10-11T07:09:31.072Z,7.99
2022-10-11T07:11:57.682Z,8.04
2022-10-11T07:14:24.275Z,8.03
2022-10-11T07:16:50.902Z,8.14
2022-10-11T07:19:17.645Z,8.12
2022-10-11T07:21:44.318Z,8.13
2022-10-11T07:24:11.212Z,8.17
2022-10-11T07:26:38.328Z,8.26
2022-10-11T07:29:06.205Z,8.41
2022-10-11T07:31:32.939Z,8.34
2022-10-11T07:33:59.604Z,8.31
2022-10-11T07:36:26.370Z,8.26
2022-10-11T07:38:53.076Z,8.37
2022-10-11T07:41:20.327Z,8.38
2022-10-11T07:43:51.124Z,8.31
2022-10-11T07:46:18.804Z,8.34
2022-10-11T07:48:45.620Z,8.23
2022-10-11T07:51:16.000Z,8.24
2022-10-11T07:53:45.443Z,8.14
2022-10-11T07:56:14.527Z,8.13
2022-10-11T07:58:42.408Z,8.26
2022-10-11T08:01:10.904Z,8.30
2022-10-11T08:03:38.446Z,8.24
2022-10-11T08:06:08.172Z,8.47
2022-10-11T08:08:36.278Z,8.65
2022-10-11T08:11:03.575Z,8.75
2022-10-11T08:13:30.198Z,8.64
2022-10-11T08:15:57.234Z,8.62
2022-10-11T08:18:24.798Z,8.65
2022-10-11T08:20:51.751Z,8.48
2022-10-11T08:23:19.159Z,8.48
2022-10-11T08:25:47.693Z,8.54
2022-10-11T08:28:17.682Z,8.43
2022-10-11T08:30:52.637Z,8.51
2022-10-11T08:33:21.338Z,8.67
2022-10-11T08:35:48.973Z,8.58
2022-10-11T08:38:17.160Z,8.68
2022-10-11T08:40:57.686Z,8.76
2022-10-11T08:43:33.378Z,8.82
2022-10-11T08:46:03.361Z,8.98
2022-10-11T08:48:56.963Z,8.79
2022-10-11T08:51:47.270Z,8.95
2022-10-11T08:54:22.947Z,8.89
2022-10-11T08:56:50.590Z,9.02
2022-10-11T08:59:41.201Z,9.03
2022-10-11T09:03:07.054Z,9.37
2022-10-11T09:05:36.279Z,9.23
2022-10-11T09:08:26.151Z,9.37
2022-10-11T09:11:08.399Z,9.39
2022-10-11T09:13:56.473Z,9.44
2022-10-11T09:16:58.526Z,9.48
2022-10-11T09:19:52.815Z,9.55
2022-10-11T09:22:43.722Z,9.82
2022-10-11T09:25:33.226Z,9.97
2022-10-11T09:28:20.954Z,10.13
2022-10-11T09:30:50.989Z,10.06
2022-10-11T09:33:36.934Z,9.98
2022-10-11T09:36:16.469Z,10.26
2022-10-11T09:38:50.877Z,10.38
2022-10-11T09:41:52.175Z,10.67
2022-10-11T09:44:24.216Z,10.69
2022-10-11T09:46:52.725Z,10.48
2022-10-11T09:49:23.186Z,10.52
2022-10-11T09:51:58.999Z,10.57
2022-10-11T09:54:48.904Z,10.22
2022-10-11T09:57:24.810Z,10.45
2022-10-11T10:00:01.357Z,10.98
2022-10-11T10:02:30.645Z,10.91
2022-10-11T10:04:57.255Z,11.22
2022-10-11T10:07:24.218Z,11.21
2022-10-11T10:09:51.610Z,10.87
2022-10-11T10:12:24.350Z,10.66
2022-10-11T10:14:56.675Z,10.83
2022-10-11T10:17:23.237Z,10.83
2022-10-11T10:19:54.816Z,11.27
2022-10-11T10:22:27.104Z,11.02
2022-10-11T10:24:55.018Z,11.41
2022-10-11T10:27:23.010Z,11.38
2022-10-11T10:30:08.246Z,11.66
2022-10-11T10:32:47.559Z,11.46
2022-10-11T10:35:33.713Z,12.11
2022-10-11T10:38:37.530Z,12.13
2022-10-11T10:41:16.711Z,11.99
2022-10-11T10:43:46.116Z,11.52
2022-10-11T10:46:31.034Z,11.82
2022-10-11T10:49:54.057Z,11.86
2022-10-11T10:52:39.037Z,11.76
2022-10-11T10:55:27.818Z,11.63
2022-10-11T10:58:18.782Z,12.22
2022-10-11T11:00:52.028Z,12.76
2022-10-11T11:03:32.425Z,13.99
2022-10-11T11:06:02.187Z,14.52
2022-10-11T11:08:29.038Z,14.41
2022-10-11T11:11:04.660Z,15.33
2022-10-11T11:13:41.389Z,14.37
2022-10-11T11:16:24.210Z,16.32
2022-10-11T11:19:05.693Z,17.00
2022-10-11T11:21:52.404Z,17.00
2022-10-11T11:24:22.008Z,17.91
2022-10-11T11:27:40.052Z,17.96
2022-10-11T11:30:19.427Z,17.73
2022-10-11T11:33:02.471Z,18.80
2022-10-11T11:35:44.143Z,18.09
2022-10-11T11:38:29.280Z,18.43
2022-10-11T11:41:02.160Z,18.47
2022-10-11T11:43:40.082Z,18.19
2022-10-11T11:46:17.117Z,17.48
2022-10-11T11:48:44.454Z,19.22
2022-10-11T11:51:27.761Z,20.05
2022-10-11T11:54:16.082Z,19.12
2022-10-11T11:56:45.362Z,19.38
2022-10-11T11:59:24.546Z,19.15
2022-10-11T12:02:24.119Z,17.50
2022-10-11T12:04:52.295Z,18.17
2022-10-11T12:07:22.411Z,19.42
2022-10-11T12:09:54.451Z,19.36
2022-10-11T12:12:34.194Z,19.67
2022-10-11T12:15:06.939Z,19.91
2022-10-11T12:17:33.760Z,19.82
2022-10-11T12:20:21.006Z,18.88
2022-10-11T12:22:50.687Z,17.91
2022-10-11T12:25:23.021Z,18.58
2022-10-11T12:28:01.641Z,18.57
2022-10-11T12:30:51.086Z,18.70
2022-10-11T12:33:21.504Z,18.64
2022-10-11T12:36:20.263Z,18.47
2022-10-11T12:38:46.967Z,17.08
2022-10-11T12:41:13.506Z,16.83
2022-10-11T12:43:49.294Z,16.53
2022-10-11T12:46:28.165Z,16.25
2022-10-11T12:49:32.502Z,15.78
2022-10-11T12:52:17.706Z,16.07
2022-10-11T12:55:12.319Z,16.32
2022-10-11T12:57:59.186Z,15.80
2022-10-11T13:00:29.880Z,16.42
2022-10-11T13:03:32.293Z,16.72
2022-10-11T13:06:01.877Z,17.20
2022-10-11T13:08:36.557Z,18.30
2022-10-11T13:11:07.547Z,18.06
2022-10-11T13:13:44.156Z,18.98
2022-10-11T13:17:00.503Z,19.19
2022-10-11T13:19:28.775Z,18.36
2022-10-11T13:22:05.038Z,18.09
2022-10-11T13:24:40.755Z,17.93
2022-10-11T13:27:08.192Z,18.74
2022-10-11T13:29:39.256Z,19.71
2022-10-11T13:32:19.797Z,19.81
2022-10-11T13:34:49.267Z,20.26
2022-10-11T13:37:19.367Z,19.45
2022-10-11T13:39:48.990Z,19.59
2022-10-11T13:42:17.915Z,18.33
2022-10-11T13:44:46.349Z,19.39
2022-10-11T13:47:18.735Z,19.46
2022-10-11T13:49:50.508Z,18.58
2022-10-11T13:52:20.310Z,18.27
2022-10-11T13:55:05.124Z,18.47
2022-10-11T13:57:38.098Z,18.65
2022-10-11T14:00:38.265Z,19.08
2022-10-11T14:03:14.289Z,17.62
2022-10-11T14:05:43.552Z,17.47
2022-10-11T14:08:25.318Z,18.87
2022-10-11T14:10:56.727Z,19.18
2022-10-11T14:13:25.883Z,19.19
2022-10-11T14:16:11.382Z,19.80
2022-10-11T14:18:46.309Z,19.24
2022-10-11T14:21:19.090Z,20.28
2022-10-11T14:24:00.583Z,19.59
2022-10-11T14:26:33.009Z,19.74
2022-10-11T14:29:02.324Z,18.98
2022-10-11T14:31:29.736Z,19.70
2022-10-11T14:33:56.668Z,20.14
2022-10-11T14:36:23.887Z,20.19
2022-10-11T14:38:51.746Z,20.25
2022-10-11T14:41:18.459Z,18.71
2022-10-11T14:43:45.068Z,19.61
2022-10-11T14:46:24.013Z,20.26
2022-10-11T14:48:55.574Z,19.45
2022-10-11T14:51:28.075Z,19.47
2022-10-11T14:53:54.773Z,19.50
2022-10-11T14:56:21.996Z,18.98
2022-10-11T14:58:49.264Z,19.20
2022-10-11T15:01:17.415Z,19.66
2022-10-11T15:03:44.164Z,19.49
2022-10-11T15:06:18.487Z,19.24
2022-10-11T15:08:45.421Z,19.59
2022-10-11T15:11:13.958Z,19.28
2022-10-11T15:13:40.586Z,19.01
2022-10-11T15:16:08.300Z,19.45
2022-10-11T15:18:35.252Z,19.39
2022-10-11T15:21:02.200Z,19.13
2022-10-11T15:23:29.308Z,19.40
2022-10-11T15:25:56.338Z,18.88
2022-10-11T15:28:30.384Z,19.10
2022-10-11T15:30:59.622Z,18.60
2022-10-11T15:33:26.684Z,19.06
2022-10-11T15:35:53.482Z,19.03
2022-10-11T15:38:22.399Z,18.64
2022-10-11T15:40:49.771Z,18.41
2022-10-11T15:43:22.021Z,18.55
2022-10-11T15:45:51.049Z,18.27
2022-10-11T15:48:19.680Z,18.10
2022-10-11T15:50:46.347Z,17.99
2022-10-11T15:53:21.255Z,18.14
2022-10-11T15:55:50.635Z,17.83
2022-10-11T15:58:17.199Z,17.58
2022-10-11T16:00:45.199Z,17.21
2022-10-11T16:03:13.689Z,17.30
2022-10-11T16:05:40.821Z,17.14
2022-10-11T16:08:07.865Z,16.90
2022-10-11T16:10:34.755Z,16.53
2022-10-11T16:13:02.169Z,16.32
2022-10-11T16:15:29.287Z,15.70
2022-10-11T16:17:56.176Z,15.62
2022-10-11T16:20:24.788Z,15.26
2022-10-11T16:22:53.443Z,15.42
2022-10-11T16:25:20.979Z,15.31
2022-10-11T16:27:47.702Z,15.21
2022-10-11T16:30:15.493Z,15.06
2022-10-11T16:32:42.300Z,14.99
2022-10-11T16:35:09.490Z,14.54
2022-10-11T16:37:36.667Z,14.38
2022-10-11T16:40:07.891Z,14.32
2022-10-11T16:42:34.867Z,14.12
2022-10-11T16:45:01.875Z,14.02
2022-10-11T16:47:28.476Z,13.77
2022-10-11T16:49:55.072Z,13.72
2022-10-11T16:52:21.695Z,13.48
2022-10-11T16:54:49.213Z,13.34
2022-10-11T16:57:17.866Z,13.24
2022-10-11T16:59:44.873Z,13.27
2022-10-11T17:02:24.580Z,13.06
2022-10-11T17:04:54.310Z,13.03
2022-10-11T17:07:23.205Z,12.96
2022-10-11T17:09:50.406Z,12.73
2022-10-11T17:12:20.197Z,12.47
2022-10-11T17:14:47.694Z,12.45
2022-10-11T17:17:15.086Z,12.32
2022-10-11T17:19:45.407Z,12.35
2022-10-11T17:22:14.010Z,12.24
2022-10-11T17:24:41.018Z,12.24
2022-10-11T17:27:08.296Z,12.16
2022-10-11T17:29:34.987Z,12.08
2022-10-11T17:32:02.048Z,11.91
2022-10-11T17:34:28.775Z,11.96
2022-10-11T17:36:55.544Z,11.70
2022-10-11T17:39:23.888Z,11.56
2022-10-11T17:41:50.581Z,11.43
2022-10-11T17:44:18.599Z,11.14
2022-10-11T17:46:45.789Z,11.38
2022-10-11T17:49:12.724Z,11.27
2022-10-11T17:51:40.754Z,11.22
2022-10-11T17:58:40.129Z,10.90
2022-10-11T18:01:13.613Z,10.97
2022-10-11T18:03:41.180Z,10.94
2022-10-11T18:06:13.454Z,10.59
2022-10-11T18:08:40.957Z,10.53
2022-10-11T18:11:14.018Z,10.60
2022-10-11T18:13:45.911Z,10.57
2022-10-11T18:16:14.218Z,10.33
2022-10-11T18:18:40.976Z,10.33
2022-10-11T18:21:07.580Z,10.22
2022-10-11T18:23:35.949Z,10.02
2022-10-11T18:26:09.427Z,10.06
2022-10-11T18:28:36.567Z,10.05
2022-10-11T18:31:12.555Z,9.98
2022-10-11T18:33:40.663Z,10.18
2022-10-11T18:36:09.359Z,10.15
2022-10-11T18:38:37.958Z,10.03
2022-10-11T18:41:10.035Z,10.05
2022-10-11T18:43:37.575Z,10.06
2022-10-11T18:46:10.343Z,9.94
2022-10-11T18:48:39.949Z,9.90
2022-10-11T18:51:11.764Z,9.82
2022-10-11T18:53:39.875Z,9.61
2022-10-11T18:56:10.468Z,9.39
2022-10-11T18:58:39.644Z,9.44
2022-10-11T19:01:11.931Z,9.46
2022-10-11T19:03:39.356Z,9.47
2022-10-11T19:06:09.279Z,9.19
2022-10-11T19:08:36.385Z,9.39
2022-10-11T19:11:10.475Z,9.22
2022-10-11T19:13:37.159Z,9.16
2022-10-11T19:16:15.975Z,9.20
2022-10-11T19:18:44.590Z,9.11
2022-10-11T19:21:12.934Z,9.05
2022-10-11T19:23:42.178Z,8.99
2022-10-11T19:26:13.508Z,8.99
2022-10-11T19:28:40.252Z,8.96
2022-10-11T19:31:10.090Z,8.89
2022-10-11T19:33:37.843Z,8.92
2022-10-11T19:36:05.886Z,8.83
2022-10-11T19:38:36.161Z,8.83
2022-10-11T19:41:05.177Z,9.41
2022-10-11T19:43:32.431Z,9.13
2022-10-11T19:46:03.422Z,9.13
2022-10-11T19:48:30.786Z,9.18
2022-10-11T19:51:05.447Z,9.08
2022-10-11T19:53:32.552Z,8.88
2022-10-11T19:56:04.019Z,8.95
2022-10-11T19:58:31.235Z,8.85
2022-10-11T20:01:00.942Z,8.82
2022-10-11T20:03:27.717Z,8.88
2022-10-11T20:05:54.360Z,8.83
2022-10-11T20:08:20.904Z,8.65
2022-10-11T20:10:47.952Z,8.72
2022-10-11T20:13:14.542Z,8.68
2022-10-11T20:15:41.252Z,8.69
2022-10-11T20:18:08.272Z,8.44
2022-10-11T20:20:34.945Z,8.27
2022-10-11T20:23:01.541Z,8.23
2022-10-11T20:25:28.085Z,8.09
2022-10-11T20:27:54.717Z,8.23
2022-10-11T20:30:21.397Z,8.17
2022-10-11T20:32:49.643Z,8.29
2022-10-11T20:35:17.800Z,8.48
2022-10-11T20:37:44.727Z,8.29
2022-10-11T20:40:12.035Z,8.33
2022-10-11T20:42:38.634Z,8.36
2022-10-11T20:45:05.595Z,8.36
2022-10-11T20:47:32.658Z,8.36
2022-10-11T20:49:59.620Z,8.27
2022-10-11T20:52:26.194Z,8.20
2022-10-11T20:54:52.801Z,8.02
2022-10-11T20:57:19.546Z,7.97
2022-10-11T20:59:46.122Z,7.87
2022-10-11T21:02:16.661Z,7.99
2022-10-11T21:04:45.584Z,7.94
2022-10-11T21:07:12.281Z,7.96
2022-10-11T21:09:38.925Z,8.00
2022-10-11T21:12:06.020Z,7.94
2022-10-11T21:14:32.630Z,7.92
2022-10-11T21:16:59.287Z,8.03
2022-10-11T21:19:25.837Z,8.04
2022-10-11T21:21:53.791Z,8.04
2022-10-11T21:24:21.491Z,7.83
2022-10-11T21:26:48.246Z,7.89
2022-10-11T21:29:15.368Z,7.92
2022-10-11T21:31:42.027Z,7.79
2022-10-11T21:34:09.258Z,7.85
2022-10-11T21:36:39.047Z,7.92
2022-10-11T21:39:12.224Z,7.85
2022-10-11T21:41:38.877Z,7.82
2022-10-11T21:44:05.573Z,7.69
2022-10-11T21:49:22.759Z,7.45
2022-10-11T21:51:49.654Z,7.65
2022-10-11T21:54:16.778Z,7.44
2022-10-11T21:56:43.378Z,7.62
2022-10-11T21:59:12.343Z,7.56
2022-10-11T22:01:40.486Z,7.36
2022-10-11T22:04:07.765Z,7.24
2022-10-11T22:06:35.094Z,7.28
2022-10-11T22:09:02.070Z,7.25
2022-10-11T22:11:28.611Z,7.14
2022-10-11T22:13:55.240Z,7.23
2022-10-11T22:16:22.017Z,7.18
2022-10-11T22:18:48.674Z,7.18
2022-10-11T22:21:18.123Z,7.03
2022-10-11T22:23:47.665Z,7.05
2022-10-11T22:26:20.092Z,7.01
2022-10-11T22:28:47.332Z,6.92
2022-10-11T22:31:16.117Z,6.82
2022-10-11T22:33:42.963Z,6.63
2022-10-11T22:36:12.528Z,6.75
2022-10-11T22:38:41.369Z,6.80
2022-10-11T22:41:08.298Z,6.73
2022-10-11T22:43:35.373Z,6.69
2022-10-11T22:46:02.340Z,6.65
2022-10-11T22:48:29.773Z,6.73
2022-10-11T22:50:56.385Z,6.83
2022-10-11T22:53:23.193Z,6.69
2022-10-11T22:55:49.818Z,6.69
2022-10-11T22:58:16.770Z,6.50
2022-10-11T23:00:43.520Z,6.76
2022-10-11T23:03:18.293Z,6.57
2022-10-11T23:05:54.412Z,6.55
2022-10-11T23:08:20.966Z,6.79
2022-10-11T23:10:47.739Z,6.71
2022-10-11T23:13:14.299Z,6.62
2022-10-11T23:15:41.135Z,6.66
2022-10-11T23:18:07.838Z,6.71
2022-10-11T23:20:34.376Z,6.71
2022-10-11T23:23:01.125Z,6.86
2022-10-11T23:25:27.764Z,6.84
2022-10-11T23:27:54.323Z,6.76
2022-10-11T23:30:21.042Z,6.87
2022-10-11T23:32:47.713Z,6.71
2022-10-11T23:35:14.288Z,6.53
2022-10-11T23:37:41.040Z,6.24
2022-10-11T23:40:10.381Z,6.11
2022-10-11T23:42:37.025Z,6.21
2022-10-11T23:45:04.004Z,6.20
2022-10-11T23:47:30.557Z,6.10
2022-10-11T23:49:57.219Z,6.05
2022-10-11T23:52:24.010Z,6.05
2022-10-11T23:54:50.614Z,6.08
